createdAt,value
2023-04-01T00:01:53.865Z,98312.19
2023-04-01T00:04:23.152Z,98310.16
2023-04-01T00:06:53.945Z,98306.25
2023-04-01T00:09:22.690Z,98305.66
2023-04-01T00:11:51.494Z,98301.56
2023-04-01T00:14:20.583Z,98289.69
2023-04-01T00:16:49.335Z,98284.78
2023-04-01T00:19:18.258Z,98283.16
2023-04-01T00:21:47.571Z,98280.31
2023-04-01T00:24:18.478Z,98282.75
2023-04-01T00:26:48.710Z,98274.41
2023-04-01T00:29:17.531Z,98280.56
2023-04-01T00:31:46.099Z,98272.47
2023-04-01T00:34:15.093Z,98281.63
2023-04-01T00:36:44.038Z,98277.94
2023-04-01T00:39:12.976Z,98278.94
2023-04-01T00:41:43.192Z,98287.28
2023-04-01T00:44:19.646Z,98285.66
2023-04-01T00:46:48.698Z,98287.09
2023-04-01T00:49:20.376Z,98280.72
2023-04-01T00:51:52.538Z,98275.88
2023-04-01T00:54:23.170Z,98285.28
2023-04-01T00:56:57.300Z,98281.63
2023-04-01T00:59:31.418Z,98285.69
2023-04-01T01:02:00.047Z,98282.06
2023-04-01T01:04:30.035Z,98287.00
2023-04-01T01:07:07.295Z,98272.28
2023-04-01T01:09:43.457Z,98276.78
2023-04-01T01:12:17.119Z,98266.59
2023-04-01T01:14:53.955Z,98271.28
2023-04-01T01:17:31.483Z,98276.41
2023-04-01T01:20:35.317Z,98276.00
2023-04-01T01:23:25.929Z,98268.22
2023-04-01T01:26:07.822Z,98273.94
2023-04-01T01:28:47.475Z,98277.41
2023-04-01T01:31:22.388Z,98283.31
2023-04-01T01:33:59.717Z,98280.03
2023-04-01T01:36:32.600Z,98279.63
2023-04-01T01:39:02.225Z,98272.88
2023-04-01T01:41:32.080Z,98286.56
2023-04-01T01:44:02.281Z,98287.41
2023-04-01T01:46:32.256Z,98287.00
2023-04-01T01:49:02.664Z,98289.00
2023-04-01T01:51:33.237Z,98279.25
2023-04-01T01:54:04.109Z,98278.03
2023-04-01T01:56:35.297Z,98289.00
2023-04-01T01:59:06.658Z,98283.66
2023-04-01T02:01:37.972Z,98280.41
2023-04-01T02:04:15.956Z,98272.69
2023-04-01T02:06:50.763Z,98275.66
2023-04-01T02:09:21.527Z,98261.53
2023-04-01T02:11:52.525Z,98265.19
2023-04-01T02:14:23.641Z,98259.69
2023-04-01T02:16:55.629Z,98252.13
2023-04-01T02:19:26.937Z,98259.84
2023-04-01T02:22:00.152Z,98256.22
2023-04-01T02:24:30.838Z,98253.41
2023-04-01T02:26:59.782Z,98255.81
2023-04-01T02:29:29.985Z,98256.00
2023-04-01T02:31:59.467Z,98250.34
2023-04-01T02:34:28.496Z,98244.63
2023-04-01T02:36:59.400Z,98243.25
2023-04-01T02:39:28.729Z,98240.63
2023-04-01T02:41:57.577Z,98233.31
2023-04-01T02:44:26.446Z,98237.00
2023-04-01T02:46:55.524Z,98241.69
2023-04-01T02:49:24.553Z,98239.84
2023-04-01T02:51:53.760Z,98250.22
2023-04-01T02:54:24.135Z,98249.38
2023-04-01T02:56:52.797Z,98248.59
2023-04-01T02:59:21.664Z,98259.19
2023-04-01T03:01:50.219Z,98261.88
2023-04-01T03:04:19.137Z,98257.63
2023-04-01T03:06:48.225Z,98267.19
2023-04-01T03:09:17.167Z,98264.53
2023-04-01T03:11:47.861Z,98268.19
2023-04-01T03:14:16.887Z,98275.16
2023-04-01T03:16:45.457Z,98265.56
2023-04-01T03:19:14.755Z,98271.50
2023-04-01T03:21:43.535Z,98268.22
2023-04-01T03:24:12.567Z,98278.00
2023-04-01T03:26:41.422Z,98272.50
2023-04-01T03:29:12.393Z,98269.84
2023-04-01T03:31:41.384Z,98272.91
2023-04-01T03:34:10.416Z,98286.59
2023-04-01T03:36:39.385Z,98277.63
2023-04-01T03:39:08.283Z,98279.66
2023-04-01T03:41:43.360Z,98284.78
2023-04-01T03:44:13.903Z,98290.66
2023-04-01T03:46:42.680Z,98294.75
2023-04-01T03:49:12.973Z,98289.66
2023-04-01T03:51:41.760Z,98282.09
2023-04-01T03:54:11.131Z,98297.19
2023-04-01T03:56:40.542Z,98304.75
2023-04-01T03:59:10.356Z,98303.13
2023-04-01T04:01:40.350Z,98300.66
2023-04-01T04:04:09.511Z,98305.97
2023-04-01T04:06:38.665Z,98308.03
2023-04-01T04:09:07.563Z,98315.94
2023-04-01T04:11:37.054Z,98312.06
2023-04-01T04:14:05.944Z,98308.03
2023-04-01T04:16:34.608Z,98311.03
2023-04-01T04:19:06.664Z,98319.03
2023-04-01T04:21:35.999Z,98320.03
2023-04-01T04:24:05.670Z,98315.97
2023-04-01T04:26:54.651Z,98328.81
2023-04-01T04:29:23.951Z,98330.22
2023-04-01T04:31:53.062Z,98331.84
2023-04-01T04:34:23.978Z,98327.34
2023-04-01T04:36:52.966Z,98327.38
2023-04-01T04:39:22.927Z,98333.06
2023-04-01T04:41:52.299Z,98332.47
2023-04-01T04:44:21.469Z,98337.16
2023-04-01T04:46:50.527Z,98333.06
2023-04-01T04:49:19.763Z,98327.19
2023-04-01T04:51:50.830Z,98331.66
2023-04-01T04:54:22.182Z,98326.75
2023-04-01T04:56:58.135Z,98333.91
2023-04-01T04:59:28.762Z,98330.84
2023-04-01T05:02:08.986Z,98339.19
2023-04-01T05:04:38.218Z,98341.84
2023-04-01T05:07:11.056Z,98341.69
2023-04-01T05:09:41.278Z,98331.44
2023-04-01T05:12:10.292Z,98336.38
2023-04-01T05:14:56.938Z,98336.38
2023-04-01T05:17:26.372Z,98336.78
2023-04-01T05:19:55.526Z,98336.53
2023-04-01T05:22:26.006Z,98341.38
2023-04-01T05:24:55.384Z,98336.75
2023-04-01T05:27:24.663Z,98336.69
2023-04-01T05:29:53.601Z,98342.00
2023-04-01T05:32:42.251Z,98333.22
2023-04-01T05:35:11.530Z,98330.16
2023-04-01T05:37:41.448Z,98344.88
2023-04-01T05:40:10.801Z,98341.59
2023-04-01T05:42:39.771Z,98342.19
2023-04-01T05:45:10.081Z,98347.03
2023-04-01T05:47:57.979Z,98341.38
2023-04-01T05:50:27.080Z,98338.91
2023-04-01T05:52:57.020Z,98342.03
2023-04-01T05:55:25.777Z,98348.94
2023-04-01T05:57:54.604Z,98349.56
2023-04-01T06:00:23.714Z,98349.00
2023-04-01T06:02:53.878Z,98350.22
2023-04-01T06:05:24.628Z,98348.06
2023-04-01T06:07:54.442Z,98349.22
2023-04-01T06:10:33.764Z,98348.72
2023-04-01T06:13:08.115Z,98350.09
2023-04-01T06:15:43.107Z,98354.66
2023-04-01T06:18:38.284Z,98352.56
2023-04-01T06:21:12.236Z,98355.22
2023-04-01T06:23:59.980Z,98358.38
2023-04-01T06:26:33.376Z,98361.50
2023-04-01T06:29:30.898Z,98360.06
2023-04-01T06:32:15.107Z,98354.53
2023-04-01T06:35:02.913Z,98362.72
2023-04-01T06:37:48.824Z,98354.25
2023-04-01T06:40:44.421Z,98359.38
2023-04-01T06:43:20.444Z,98356.19
2023-04-01T06:46:13.526Z,98366.78
2023-04-01T06:49:14.592Z,98357.91
2023-04-01T06:51:50.630Z,98356.06
2023-04-01T06:54:39.962Z,98369.63
2023-04-01T06:57:24.569Z,98362.53
2023-04-01T06:59:58.231Z,98348.16
2023-04-01T07:02:32.325Z,98362.13
2023-04-01T07:05:02.313Z,98369.06
2023-04-01T07:07:36.969Z,98366.97
2023-04-01T07:10:15.604Z,98376.09
2023-04-01T07:13:10.561Z,98372.94
2023-04-01T07:16:11.359Z,98368.09
2023-04-01T07:18:47.086Z,98360.31
2023-04-01T07:21:24.800Z,98367.22
2023-04-01T07:23:57.151Z,98364.63
2023-04-01T07:26:37.369Z,98365.44
2023-04-01T07:29:08.342Z,98367.19
2023-04-01T07:32:08.617Z,98361.91
2023-04-01T07:34:41.739Z,98365.53
2023-04-01T07:37:16.283Z,98365.69
2023-04-01T07:39:54.094Z,98358.78
2023-04-01T07:42:44.521Z,98361.59
2023-04-01T07:45:20.264Z,98364.25
2023-04-01T07:48:02.788Z,98363.50
2023-04-01T07:50:34.343Z,98360.50
2023-04-01T07:53:11.419Z,98369.63
2023-04-01T07:55:44.821Z,98372.41
2023-04-01T07:58:19.718Z,98373.94
2023-04-01T08:00:53.234Z,98375.75
2023-04-01T08:03:41.192Z,98376.84
2023-04-01T08:06:17.041Z,98379.56
2023-04-01T08:08:53.308Z,98380.91
2023-04-01T08:12:06.758Z,98376.63
2023-04-01T08:15:01.083Z,98387.03
2023-04-01T08:18:06.861Z,98381.09
2023-04-01T08:20:41.408Z,98389.91
2023-04-01T08:23:16.439Z,98385.75
2023-04-01T08:25:51.175Z,98388.69
2023-04-01T08:28:25.673Z,98386.31
2023-04-01T08:30:57.720Z,98393.19
2023-04-01T08:33:27.874Z,98396.91
2023-04-01T08:36:14.615Z,98389.09
2023-04-01T08:38:47.537Z,98399.31
2023-04-01T08:41:45.535Z,98404.13
2023-04-01T08:45:14.453Z,98397.81
2023-04-01T08:47:59.249Z,98395.97
2023-04-01T08:50:45.760Z,98406.28
2023-04-01T08:53:53.606Z,98401.72
2023-04-01T08:56:28.068Z,98404.47
2023-04-01T08:59:18.323Z,98395.06
2023-04-01T09:02:11.567Z,98406.47
2023-04-01T09:05:19.148Z,98402.75
2023-04-01T09:07:55.782Z,98399.59
2023-04-01T09:10:52.909Z,98403.69
2023-04-01T09:14:15.092Z,98407.69
2023-04-01T09:17:00.365Z,98405.78
2023-04-01T09:19:36.144Z,98411.53
2023-04-01T09:22:21.114Z,98410.72
2023-04-01T09:25:14.958Z,98418.19
2023-04-01T09:27:55.935Z,98418.50
2023-04-01T09:31:03.980Z,98419.41
2023-04-01T09:34:10.025Z,98417.88
2023-04-01T09:37:11.085Z,98423.69
2023-04-01T09:39:42.309Z,98418.34
2023-04-01T09:42:44.955Z,98424.06
2023-04-01T09:45:37.599Z,98423.22
2023-04-01T09:48:19.370Z,98414.72
2023-04-01T09:50:56.166Z,98424.03
2023-04-01T09:53:38.857Z,98423.47
2023-04-01T09:56:45.661Z,98415.91
2023-04-01T09:59:56.916Z,98433.59
2023-04-01T10:03:12.539Z,98433.25
2023-04-01T10:06:03.763Z,98427.34
2023-04-01T10:09:11.908Z,98429.88
2023-04-01T10:12:15.582Z,98436.69
2023-04-01T10:15:01.641Z,98438.97
2023-04-01T10:17:59.180Z,98435.66
2023-04-01T10:20:52.965Z,98443.47
2023-04-01T10:23:48.372Z,98445.00
2023-04-01T10:26:48.702Z,98437.91
2023-04-01T10:30:08.487Z,98437.97
2023-04-01T10:33:07.731Z,98438.50
2023-04-01T10:36:20.143Z,98435.91
2023-04-01T10:39:16.704Z,98439.03
2023-04-01T10:42:11.320Z,98434.09
2023-04-01T10:45:38.759Z,98447.16
2023-04-01T10:48:38.899Z,98437.72
2023-04-01T10:51:17.453Z,98431.81
2023-04-01T10:53:53.477Z,98426.47
2023-04-01T10:56:58.560Z,98436.38
2023-04-01T11:00:19.894Z,98436.53
2023-04-01T11:03:51.031Z,98438.47
2023-04-01T11:07:22.334Z,98442.22
2023-04-01T11:10:27.382Z,98446.56
2023-04-01T11:13:43.881Z,98437.94
2023-04-01T11:16:54.459Z,98437.88
2023-04-01T11:19:47.051Z,98437.72
2023-04-01T11:23:00.871Z,98441.97
2023-04-01T11:25:51.708Z,98435.28
2023-04-01T11:28:48.328Z,98441.31
2023-04-01T11:31:28.691Z,98447.44
2023-04-01T11:34:05.425Z,98439.63
2023-04-01T11:36:41.755Z,98444.75
2023-04-01T11:39:21.968Z,98452.63
2023-04-01T11:42:17.597Z,98447.19
2023-04-01T11:45:18.320Z,98436.22
2023-04-01T11:47:58.587Z,98448.13
2023-04-01T11:50:37.362Z,98447.19
2023-04-01T11:53:18.663Z,98445.84
2023-04-01T11:55:58.749Z,98444.38
2023-04-01T11:58:39.944Z,98436.25
2023-04-01T12:01:30.068Z,98440.47
2023-04-01T12:04:39.356Z,98446.66
2023-04-01T12:07:18.195Z,98443.38
2023-04-01T12:09:53.053Z,98450.31
2023-04-01T12:12:32.285Z,98442.47
2023-04-01T12:15:14.757Z,98451.91
2023-04-01T12:17:49.349Z,98448.94
2023-04-01T12:20:33.982Z,98451.75
2023-04-01T12:23:16.020Z,98449.31
2023-04-01T12:26:26.641Z,98453.31
2023-04-01T12:29:05.932Z,98449.56
2023-04-01T12:31:45.393Z,98445.31
2023-04-01T12:34:43.961Z,98447.56
2023-04-01T12:37:17.223Z,98455.16
2023-04-01T12:40:19.662Z,98449.31
2023-04-01T12:43:02.329Z,98448.88
2023-04-01T12:45:33.135Z,98442.16
2023-04-01T12:48:36.074Z,98447.34
2023-04-01T12:51:27.997Z,98445.31
2023-04-01T12:54:13.927Z,98449.00
2023-04-01T12:56:50.799Z,98449.13
2023-04-01T12:59:29.224Z,98458.03
2023-04-01T13:02:04.394Z,98457.31
2023-04-01T13:05:03.639Z,98452.66
2023-04-01T13:07:55.627Z,98454.13
2023-04-01T13:10:34.449Z,98451.06
2023-04-01T13:13:21.562Z,98464.69
2023-04-01T13:15:54.748Z,98464.09
2023-04-01T13:18:29.939Z,98468.06
2023-04-01T13:21:08.166Z,98469.78
2023-04-01T13:23:45.968Z,98481.16
2023-04-01T13:26:21.720Z,98489.28
2023-04-01T13:28:54.946Z,98493.34
2023-04-01T13:31:49.787Z,98496.19
2023-04-01T13:34:32.325Z,98491.63
2023-04-01T13:37:11.040Z,98491.09
2023-04-01T13:39:49.317Z,98489.56
2023-04-01T13:42:26.056Z,98499.00
2023-04-01T13:45:02.853Z,98492.78
2023-04-01T13:47:58.451Z,98499.31
2023-04-01T13:51:06.325Z,98512.47
2023-04-01T13:53:54.260Z,98504.69
2023-04-01T13:56:36.352Z,98518.63
2023-04-01T13:59:36.835Z,98510.47
2023-04-01T14:02:21.236Z,98522.03
2023-04-01T14:04:58.779Z,98527.59
2023-04-01T14:07:50.495Z,98523.97
2023-04-01T14:10:23.369Z,98539.38
2023-04-01T14:13:00.645Z,98529.56
2023-04-01T14:15:52.371Z,98537.25
2023-04-01T14:18:58.354Z,98539.63
2023-04-01T14:21:34.280Z,98533.78
2023-04-01T14:24:21.075Z,98534.94
2023-04-01T14:27:18.864Z,98542.97
2023-04-01T14:29:57.267Z,98541.50
2023-04-01T14:32:37.168Z,98545.41
2023-04-01T14:35:26.648Z,98550.31
2023-04-01T14:38:19.265Z,98552.59
2023-04-01T14:40:57.542Z,98553.81
2023-04-01T14:43:59.086Z,98562.94
2023-04-01T14:46:41.610Z,98559.91
2023-04-01T14:49:20.383Z,98574.28
2023-04-01T14:51:51.165Z,98570.69
2023-04-01T14:54:24.653Z,98572.94
2023-04-01T14:57:03.992Z,98584.09
2023-04-01T14:59:32.930Z,98589.59
2023-04-01T15:02:06.068Z,98584.50
2023-04-01T15:04:49.534Z,98595.41
2023-04-01T15:07:48.277Z,98593.78
2023-04-01T15:10:46.606Z,98600.97
2023-04-01T15:13:17.057Z,98607.69
2023-04-01T15:15:59.875Z,98611.28
2023-04-01T15:18:38.498Z,98603.56
2023-04-01T15:21:22.787Z,98610.06
2023-04-01T15:23:59.827Z,98621.88
2023-04-01T15:26:39.933Z,98622.66
2023-04-01T15:29:23.726Z,98625.94
2023-04-01T15:31:59.176Z,98638.22
2023-04-01T15:34:35.668Z,98637.44
2023-04-01T15:37:08.989Z,98642.28
2023-04-01T15:39:51.248Z,98636.59
2023-04-01T15:42:33.048Z,98639.50
2023-04-01T15:45:12.504Z,98645.00
2023-04-01T15:47:43.989Z,98652.38
2023-04-01T15:50:36.948Z,98650.34
2023-04-01T15:53:31.989Z,98651.34
2023-04-01T15:56:13.517Z,98661.16
2023-04-01T15:58:50.048Z,98664.00
2023-04-01T16:01:28.203Z,98671.78
2023-04-01T16:07:06.868Z,98679.72
2023-04-01T16:09:49.965Z,98678.09
2023-04-01T16:12:24.449Z,98691.34
2023-04-01T16:15:01.115Z,98698.16
2023-04-01T16:17:55.384Z,98696.69
2023-04-01T16:20:27.598Z,98704.09
2023-04-01T16:23:00.403Z,98710.19
2023-04-01T16:25:36.255Z,98702.38
2023-04-01T16:28:20.592Z,98711.38
2023-04-01T16:30:53.005Z,98713.88
2023-04-01T16:33:24.917Z,98719.41
2023-04-01T16:35:59.070Z,98721.00
2023-04-01T16:38:35.237Z,98732.31
2023-04-01T16:41:13.498Z,98727.03
2023-04-01T16:43:48.893Z,98733.88
2023-04-01T16:46:31.685Z,98739.25
2023-04-01T16:49:02.935Z,98748.00
2023-04-01T16:51:40.138Z,98750.84
2023-04-01T16:54:15.936Z,98761.81
2023-04-01T16:56:47.452Z,98768.22
2023-04-01T16:59:22.475Z,98767.81
2023-04-01T17:01:55.593Z,98772.66
2023-04-01T17:04:34.586Z,98779.75
2023-04-01T17:07:12.820Z,98784.31
2023-04-01T17:09:52.630Z,98786.41
2023-04-01T17:12:27.885Z,98786.97
2023-04-01T17:15:05.479Z,98798.97
2023-04-01T17:17:41.050Z,98805.19
2023-04-01T17:20:21.673Z,98802.66
2023-04-01T17:22:56.853Z,98807.19
2023-04-01T17:25:36.872Z,98815.78
2023-04-01T17:28:13.252Z,98809.56
2023-04-01T17:30:47.351Z,98811.03
2023-04-01T17:33:29.556Z,98819.78
2023-04-01T17:36:01.420Z,98828.56
2023-04-01T17:38:45.390Z,98831.69
2023-04-01T17:41:20.846Z,98828.81
2023-04-01T17:43:54.508Z,98839.00
2023-04-01T17:46:34.265Z,98842.31
2023-04-01T17:49:21.524Z,98840.53
2023-04-01T17:51:54.245Z,98855.00
2023-04-01T17:54:27.921Z,98856.84
2023-04-01T17:57:07.078Z,98862.50
2023-04-01T17:59:39.271Z,98876.25
2023-04-01T18:02:19.908Z,98879.16
2023-04-01T18:05:22.006Z,98880.56
2023-04-01T18:08:14.859Z,98882.91
2023-04-01T18:10:52.257Z,98889.25
2023-04-01T18:13:49.361Z,98889.94
2023-04-01T18:16:36.363Z,98899.03
2023-04-01T18:19:11.951Z,98904.41
2023-04-01T18:21:46.580Z,98907.50
2023-04-01T18:24:22.510Z,98909.97
2023-04-01T18:26:54.816Z,98914.44
2023-04-01T18:29:30.574Z,98925.03
2023-04-01T18:32:11.126Z,98932.63
2023-04-01T18:34:51.538Z,98938.44
2023-04-01T18:37:24.915Z,98933.97
2023-04-01T18:39:56.227Z,98946.78
2023-04-01T18:42:34.432Z,98949.88
2023-04-01T18:45:15.767Z,98949.16
2023-04-01T18:47:48.215Z,98952.88
2023-04-01T18:50:24.986Z,98950.06
2023-04-01T18:52:59.101Z,98954.72
2023-04-01T18:55:43.910Z,98956.81
2023-04-01T18:58:35.589Z,98952.19
2023-04-01T19:01:14.699Z,98966.69
2023-04-01T19:03:48.540Z,98962.22
2023-04-01T19:06:24.686Z,98970.44
2023-04-01T19:08:55.111Z,98974.44
2023-04-01T19:11:28.413Z,98971.44
2023-04-01T19:14:02.900Z,98973.16
2023-04-01T19:16:47.088Z,98975.81
2023-04-01T19:19:24.851Z,98981.13
2023-04-01T19:22:00.488Z,98985.88
2023-04-01T19:24:56.322Z,98990.19
2023-04-01T19:27:33.388Z,98997.94
2023-04-01T19:30:23.628Z,99001.50
2023-04-01T19:32:59.987Z,99003.59
2023-04-01T19:35:40.765Z,99007.19
2023-04-01T19:38:16.818Z,99004.69
2023-04-01T19:40:55.833Z,99013.75
2023-04-01T19:43:38.514Z,99014.19
2023-04-01T19:46:14.683Z,99019.06
2023-04-01T19:48:56.389Z,99019.88
2023-04-01T19:51:28.014Z,99025.88
2023-04-01T19:54:02.165Z,99018.22
2023-04-01T19:56:36.473Z,99023.06
2023-04-01T19:59:11.020Z,99027.78
2023-04-01T20:01:45.450Z,99028.13
2023-04-01T20:04:17.724Z,99034.31
2023-04-01T20:06:51.269Z,99039.50
2023-04-01T20:09:41.852Z,99039.44
2023-04-01T20:12:20.387Z,99044.25
2023-04-01T20:14:52.197Z,99043.00
2023-04-01T20:17:23.495Z,99046.41
2023-04-01T20:19:57.755Z,99052.94
2023-04-01T20:22:35.886Z,99052.19
2023-04-01T20:25:15.250Z,99055.91
2023-04-01T20:27:48.804Z,99056.03
2023-04-01T20:30:45.781Z,99057.78
2023-04-01T20:33:44.596Z,99059.88
2023-04-01T20:36:19.362Z,99063.63
2023-04-01T20:39:21.736Z,99062.28
2023-04-01T20:42:01.627Z,99068.72
2023-04-01T20:44:35.928Z,99067.88
2023-04-01T20:47:12.437Z,99069.59
2023-04-01T20:49:43.007Z,99075.38
2023-04-01T20:52:32.254Z,99085.66
2023-04-01T20:55:24.893Z,99090.19
2023-04-01T20:58:03.819Z,99085.00
2023-04-01T21:00:40.120Z,99098.06
2023-04-01T21:03:15.677Z,99097.88
2023-04-01T21:06:17.382Z,99104.19
2023-04-01T21:08:59.992Z,99107.06
2023-04-01T21:11:34.412Z,99107.84
2023-04-01T21:14:16.718Z,99114.91
2023-04-01T21:16:51.288Z,99118.78
2023-04-01T21:19:43.636Z,99120.66
2023-04-01T21:22:24.725Z,99131.06
2023-04-01T21:25:20.293Z,99133.94
2023-04-01T21:27:59.518Z,99139.72
2023-04-01T21:30:42.496Z,99136.31
2023-04-01T21:33:24.389Z,99138.34
2023-04-01T21:35:59.600Z,99141.28
2023-04-01T21:38:38.520Z,99135.81
2023-04-01T21:41:17.414Z,99142.75
2023-04-01T21:44:01.999Z,99149.03
2023-04-01T21:47:02.831Z,99149.69
2023-04-01T21:49:50.422Z,99147.88
2023-04-01T21:52:32.606Z,99156.91
2023-04-01T21:55:36.403Z,99158.84
2023-04-01T21:58:34.956Z,99161.22
2023-04-01T22:01:16.977Z,99156.59
2023-04-01T22:04:14.397Z,99163.22
2023-04-01T22:06:49.502Z,99168.88
2023-04-01T22:09:21.051Z,99169.06
2023-04-01T22:11:56.907Z,99174.13
2023-04-01T22:14:32.650Z,99173.09
2023-04-01T22:17:04.692Z,99170.19
2023-04-01T22:19:41.089Z,99177.13
2023-04-01T22:22:16.021Z,99175.66
2023-04-01T22:24:51.562Z,99177.16
2023-04-01T22:27:26.106Z,99189.47
2023-04-01T22:30:03.942Z,99183.88
2023-04-01T22:32:36.777Z,99189.97
2023-04-01T22:35:13.114Z,99192.88
2023-04-01T22:37:47.100Z,99198.03
2023-04-01T22:40:25.369Z,99195.69
2023-04-01T22:42:59.757Z,99207.09
2023-04-01T22:46:00.163Z,99206.78
2023-04-01T22:48:34.138Z,99199.13
2023-04-01T22:51:10.408Z,99201.81
2023-04-01T22:53:49.491Z,99209.56
2023-04-01T22:56:21.330Z,99210.72
2023-04-01T22:58:53.526Z,99210.47
2023-04-01T23:01:27.073Z,99214.56
2023-04-01T23:03:56.693Z,99214.78
2023-04-01T23:06:30.212Z,99222.41
2023-04-01T23:09:10.186Z,99218.56
2023-04-01T23:11:47.180Z,99215.91
2023-04-01T23:14:45.496Z,99223.28
2023-04-01T23:17:22.578Z,99227.28
2023-04-01T23:19:55.313Z,99226.63
2023-04-01T23:22:29.903Z,99226.75
2023-04-01T23:25:03.129Z,99234.38
2023-04-01T23:27:36.066Z,99236.69
2023-04-01T23:30:06.890Z,99241.50
2023-04-01T23:32:35.844Z,99242.66
2023-04-01T23:35:04.890Z,99247.28
2023-04-01T23:37:34.904Z,99247.63
2023-04-01T23:40:05.980Z,99256.03
2023-04-01T23:42:41.081Z,99254.56
2023-04-01T23:45:18.290Z,99259.41
2023-04-01T23:47:49.328Z,99262.66
2023-04-01T23:50:21.479Z,99264.16
2023-04-01T23:52:54.869Z,99262.59
2023-04-01T23:55:26.266Z,99267.59
2023-04-01T23:58:16.383Z,99269.69
